^^
Meteo Knjazevac Station Historical Data
Daily Summary for May 24, 2022 Units:  Metric    English   Both
Daily Weekly Monthly Yearly Custom
  High: Low: Average:
Temperature: 27.5 °C 14.6 °C 20.2 °C
Dew Point: 17.4 °C 10.9 °C 13.8 °C
Humidity: 83% 54% 68%
Wind Speed: 12.9km/h 0km/h 4km/h
Wind Gust: 25.7km/h - -
Wind- - SSE
Pressure: 1015.8 hPa 1012.8 hPa -
Precipitation: 0 mm    
Historical Graphs
 
 
Tabular Data for May 24, 2022
Time Temperature Dew Point Pressure Wind Wind Speed Wind Gust Humidity Rainfall Rate (Hourly) solar Conditions
00:00 16.7 °C 11.2 °C 1013.1 hPa Calm   3.2 km/h 70% 0 mm 0 W/m2
00:10 16.7 °C 11.6 °C 1013.1 hPa West 1.6 km/h 4.8 km/h 72% 0 mm 0 W/m2
00:20 16.6 °C 11.6 °C 1013.1 hPa West 3.2 km/h 6.4 km/h 72% 0 mm 0 W/m2
00:30 16.6 °C 11.5 °C 1012.8 hPa WSW 1.6 km/h 4.8 km/h 72% 0 mm 0 W/m2
00:40 16.5 °C 11.7 °C 1013.1 hPa WNW 3.2 km/h 4.8 km/h 73% 0 mm 0 W/m2
00:50 16.5 °C 11.7 °C 1012.8 hPa Calm   4.8 km/h 73% 0 mm 0 W/m2
01:00 16.5 °C 11.7 °C 1013.1 hPa NNW 1.6 km/h 3.2 km/h 73% 0 mm 0 W/m2
01:10 16.5 °C 11.7 °C 1013.1 hPa NNW 1.6 km/h 3.2 km/h 73% 0 mm 0 W/m2
01:20 16.4 °C 11.8 °C 1013.1 hPa Calm   3.2 km/h 74% 0 mm 0 W/m2
01:30 16.3 °C 11.7 °C 1013.1 hPa WSW 1.6 km/h 3.2 km/h 74% 0 mm 0 W/m2
01:40 16.1 °C 11.4 °C 1013.1 hPa Calm   3.2 km/h 74% 0 mm 0 W/m2
01:50 16.1 °C 11.6 °C 1013.1 hPa Calm   1.6 km/h 75% 0 mm 0 W/m2
02:00 16 °C 11.6 °C 1013.1 hPa Calm   1.6 km/h 75% 0 mm 0 W/m2
02:10 15.9 °C 11.4 °C 1013.1 hPa Calm     75% 0 mm 0 W/m2
02:20 15.8 °C 11.4 °C 1013.1 hPa Calm   1.6 km/h 75% 0 mm 0 W/m2
02:30 15.8 °C 11.4 °C 1013.1 hPa Calm   1.6 km/h 75% 0 mm 0 W/m2
02:40 15.8 °C 11.8 °C 1013.1 hPa Calm   1.6 km/h 77% 0 mm 0 W/m2
02:50 15.8 °C 11.8 °C 1013.1 hPa Calm     77% 0 mm 0 W/m2
03:00 15.9 °C 11.9 °C 1013.1 hPa Calm   3.2 km/h 77% 0 mm 0 W/m2
03:10 15.9 °C 11.9 °C 1013.1 hPa NE 1.6 km/h 4.8 km/h 77% 0 mm 0 W/m2
03:20 15.9 °C 11.9 °C 1013.1 hPa NNE 3.2 km/h 3.2 km/h 77% 0 mm 0 W/m2
03:30 15.9 °C 11.9 °C 1013.1 hPa Calm   3.2 km/h 77% 0 mm 0 W/m2
03:40 15.8 °C 11.9 °C 1013.1 hPa Calm   3.2 km/h 78% 0 mm 0 W/m2
03:50 15.7 °C 11.9 °C 1013.1 hPa Calm   3.2 km/h 78% 0 mm 0 W/m2
04:00 15.7 °C 11.8 °C 1013.4 hPa Calm   3.2 km/h 78% 0 mm 0 W/m2
04:10 15.6 °C 11.8 °C 1013.1 hPa Calm   3.2 km/h 78% 0 mm 0 W/m2
04:20 15.6 °C 11.9 °C 1013.1 hPa Calm   3.2 km/h 79% 0 mm 0 W/m2
04:30 15.6 °C 11.8 °C 1013.1 hPa Calm     78% 0 mm 0 W/m2
04:40 15.4 °C 11.7 °C 1013.1 hPa NNE 1.6 km/h 3.2 km/h 79% 0 mm 0 W/m2
04:50 15.1 °C 11.5 °C 1013.4 hPa NNE 3.2 km/h 4.8 km/h 79% 0 mm 0 W/m2
05:00 14.9 °C 11.3 °C 1013.4 hPa North 1.6 km/h 4.8 km/h 79% 0 mm 3 W/m2
05:10 14.7 °C 11.3 °C 1013.4 hPa North 1.6 km/h 3.2 km/h 80% 0 mm 8 W/m2
05:20 14.7 °C 11.4 °C 1013.4 hPa Calm   3.2 km/h 81% 0 mm 14 W/m2
05:30 14.6 °C 11.4 °C 1013.8 hPa Calm   3.2 km/h 81% 0 mm 22 W/m2
05:40 14.6 °C 11.7 °C 1013.8 hPa NNE 3.2 km/h 8 km/h 83% 0 mm 33 W/m2
05:50 14.7 °C 11.8 °C 1013.8 hPa NNE 1.6 km/h 6.4 km/h 83% 0 mm 42 W/m2
06:00 14.7 °C 11.3 °C 1014.1 hPa Calm   8 km/h 80% 0 mm 46 W/m2
06:10 14.8 °C 11 °C 1014.1 hPa NE 4.8 km/h 11.3 km/h 78% 0 mm 50 W/m2
06:20 14.8 °C 11 °C 1014.1 hPa NNE 1.6 km/h 9.7 km/h 78% 0 mm 61 W/m2
06:30 14.7 °C 10.9 °C 1014.4 hPa North 3.2 km/h 8 km/h 78% 0 mm 84 W/m2
06:40 14.7 °C 10.9 °C 1014.4 hPa NNE 1.6 km/h 14.5 km/h 78% 0 mm 58 W/m2
06:50 14.8 °C 11 °C 1014.8 hPa North 3.2 km/h 9.7 km/h 78% 0 mm 89 W/m2
07:00 15 °C 11.2 °C 1014.8 hPa North 1.6 km/h 11.3 km/h 78% 0 mm 101 W/m2
07:10 15.2 °C 11.4 °C 1014.8 hPa North 1.6 km/h 9.7 km/h 78% 0 mm 215 W/m2
07:20 15.3 °C 11.3 °C 1014.8 hPa NNE 4.8 km/h 16.1 km/h 77% 0 mm 231 W/m2
07:30 15.5 °C 11.5 °C 1014.8 hPa North 8 km/h 12.9 km/h 77% 0 mm 269 W/m2
07:40 15.6 °C 11.6 °C 1014.8 hPa NNE 4.8 km/h 14.5 km/h 77% 0 mm 229 W/m2
07:50 15.7 °C 11.3 °C 1014.8 hPa North 4.8 km/h 14.5 km/h 75% 0 mm 228 W/m2
08:00 15.9 °C 11.4 °C 1014.8 hPa North 8 km/h 12.9 km/h 75% 0 mm 242 W/m2
08:10 16.1 °C 11.7 °C 1014.8 hPa North 1.6 km/h 17.7 km/h 75% 0 mm 228 W/m2
08:20 16.4 °C 12 °C 1014.8 hPa NNE 4.8 km/h 14.5 km/h 75% 0 mm 438 W/m2
08:30 17.2 °C 12.4 °C 1014.8 hPa NNE 4.8 km/h 12.9 km/h 74% 0 mm 453 W/m2
08:40 17.8 °C 12.7 °C 1014.8 hPa North 8 km/h 19.3 km/h 72% 0 mm 515 W/m2
08:50 18.3 °C 12.7 °C 1014.8 hPa NNE 11.3 km/h 17.7 km/h 70% 0 mm 516 W/m2
09:00 18.7 °C 12.8 °C 1014.8 hPa NNE 4.8 km/h 16.1 km/h 69% 0 mm 422 W/m2
09:10 18.8 °C 12.8 °C 1014.8 hPa NNE 3.2 km/h 16.1 km/h 68% 0 mm 301 W/m2
09:20 19.1 °C 13 °C 1014.8 hPa North 4.8 km/h 16.1 km/h 68% 0 mm 632 W/m2
09:30 19.5 °C 13.2 °C 1014.8 hPa NNE 3.2 km/h 14.5 km/h 67% 0 mm 697 W/m2
09:40 19.6 °C 12.8 °C 1014.8 hPa NNE 3.2 km/h 12.9 km/h 65% 0 mm 373 W/m2
09:50 19.8 °C 13.1 °C 1014.4 hPa North 3.2 km/h 9.7 km/h 65% 0 mm 573 W/m2
10:00 20.1 °C 12.8 °C 1014.4 hPa NE 4.8 km/h 11.3 km/h 63% 0 mm 671 W/m2
10:20 20.5 °C 13.4 °C 1014.8 hPa NE 1.6 km/h 14.5 km/h 64% 0 mm 483 W/m2
10:30 20.8 °C 13.5 °C 1014.8 hPa North 3.2 km/h 11.3 km/h 63% 0 mm 332 W/m2
10:40 20.9 °C 13.6 °C 1014.8 hPa North 8 km/h 12.9 km/h 63% 0 mm 450 W/m2
10:50 21.1 °C 13.8 °C 1014.8 hPa NNE 3.2 km/h 19.3 km/h 63% 0 mm 400 W/m2
11:00 21.3 °C 13.9 °C 1015.1 hPa North 9.7 km/h 22.5 km/h 63% 0 mm 406 W/m2
11:10 21.4 °C 14.1 °C 1014.8 hPa North 9.7 km/h 22.5 km/h 63% 0 mm 358 W/m2
11:20 21.5 °C 14.2 °C 1014.8 hPa North 8 km/h 20.9 km/h 63% 0 mm 564 W/m2
11:30 21.9 °C 14.3 °C 1014.8 hPa North 9.7 km/h 17.7 km/h 62% 0 mm 548 W/m2
11:40 22.2 °C 14.5 °C 1014.8 hPa North 4.8 km/h 17.7 km/h 62% 0 mm 946 W/m2
11:50 22.7 °C 14.8 °C 1014.8 hPa NNE 9.7 km/h 19.3 km/h 61% 0 mm 770 W/m2
12:00 23.2 °C 15.1 °C 1014.8 hPa NNE 8 km/h 20.9 km/h 60% 0 mm 956 W/m2
12:10 23.5 °C 15 °C 1014.4 hPa North 3.2 km/h 19.3 km/h 59% 0 mm 625 W/m2
12:20 23.8 °C 15.3 °C 1014.4 hPa NNE 12.9 km/h 19.3 km/h 59% 0 mm 892 W/m2
12:30 24 °C 15.2 °C 1014.1 hPa NNE 9.7 km/h 14.5 km/h 58% 0 mm 938 W/m2
12:40 24.2 °C 15.4 °C 1014.1 hPa NNE 12.9 km/h 25.7 km/h 58% 0 mm 660 W/m2
12:50 24.3 °C 15.5 °C 1014.1 hPa NNE 9.7 km/h 19.3 km/h 58% 0 mm 469 W/m2
13:00 24.8 °C 15.9 °C 1014.1 hPa North 3.2 km/h 20.9 km/h 58% 0 mm 466 W/m2
13:10 25.1 °C 16 °C 1014.1 hPa NNE 8 km/h 17.7 km/h 57% 0 mm 946 W/m2
13:20 25.5 °C 16.3 °C 1013.8 hPa North 11.3 km/h 20.9 km/h 57% 0 mm 938 W/m2
13:30 25.4 °C 16.3 °C 1013.8 hPa NNE 4.8 km/h 19.3 km/h 57% 0 mm 426 W/m2
13:40 25.7 °C 16.8 °C 1013.8 hPa North 8 km/h 14.5 km/h 58% 0 mm 918 W/m2
13:50 25.8 °C 16.9 °C 1013.4 hPa NNW 3.2 km/h 16.1 km/h 58% 0 mm 542 W/m2
14:00 25.9 °C 16.4 °C 1013.4 hPa North 3.2 km/h 17.7 km/h 56% 0 mm 550 W/m2
14:10 26 °C 16.8 °C 1013.4 hPa NNE 8 km/h 17.7 km/h 57% 0 mm 666 W/m2
14:20 26.2 °C 17 °C 1013.4 hPa North 8 km/h 19.3 km/h 57% 0 mm 862 W/m2
14:30 26.6 °C 16.8 °C 1013.1 hPa NNE 3.2 km/h 19.3 km/h 55% 0 mm 289 W/m2
14:40 26.3 °C 16.6 °C 1013.1 hPa North 8 km/h 16.1 km/h 55% 0 mm 825 W/m2
14:50 26.6 °C 17.1 °C 1013.1 hPa NNE 8 km/h 19.3 km/h 56% 0 mm 558 W/m2
15:00 26.8 °C 17.1 °C 1013.1 hPa NNE 4.8 km/h 19.3 km/h 55% 0 mm 749 W/m2
15:10 27.1 °C 17.3 °C 1013.4 hPa NNE 4.8 km/h 19.3 km/h 55% 0 mm 689 W/m2
15:20 27 °C 16.9 °C 1013.4 hPa NNE 8 km/h 14.5 km/h 54% 0 mm 431 W/m2
15:30 26.9 °C 17.2 °C 1013.1 hPa North 4.8 km/h 19.3 km/h 55% 0 mm 680 W/m2
15:40 26.8 °C 16.7 °C 1013.1 hPa North 8 km/h 14.5 km/h 54% 0 mm 251 W/m2
15:50 26.5 °C 16.7 °C 1013.1 hPa North 8 km/h 16.1 km/h 55% 0 mm 281 W/m2
16:00 26.6 °C 17.3 °C 1013.1 hPa NNE 9.7 km/h 17.7 km/h 57% 0 mm 635 W/m2
16:10 26.9 °C 17.1 °C 1013.1 hPa NNE 9.7 km/h 14.5 km/h 55% 0 mm 575 W/m2
16:20 27.1 °C 17.3 °C 1013.1 hPa North 9.7 km/h 14.5 km/h 55% 0 mm 550 W/m2
16:30 27.1 °C 17.3 °C 1013.1 hPa North 3.2 km/h 14.5 km/h 55% 0 mm 515 W/m2
16:40 27.3 °C 17.2 °C 1013.1 hPa North 3.2 km/h 16.1 km/h 54% 0 mm 475 W/m2
16:50 27.5 °C 17.4 °C 1013.1 hPa North 4.8 km/h 14.5 km/h 54% 0 mm 441 W/m2
17:00 27.4 °C 17.3 °C 1013.1 hPa North 4.8 km/h 19.3 km/h 54% 0 mm 407 W/m2
17:10 27.4 °C 17.3 °C 1013.1 hPa North 8 km/h 19.3 km/h 54% 0 mm 377 W/m2
17:20 27.4 °C 17.3 °C 1013.1 hPa North 3.2 km/h 14.5 km/h 54% 0 mm 278 W/m2
17:30 27.1 °C 17 °C 1013.1 hPa North 8 km/h 12.9 km/h 54% 0 mm 289 W/m2
17:40 26.9 °C 17.1 °C 1013.1 hPa North 4.8 km/h 14.5 km/h 55% 0 mm 285 W/m2
17:50 26.9 °C 17.1 °C 1013.4 hPa NNW 3.2 km/h 11.3 km/h 55% 0 mm 251 W/m2
18:00 26.8 °C 17 °C 1013.4 hPa North 4.8 km/h 14.5 km/h 55% 0 mm 189 W/m2
18:10 26.3 °C 16.6 °C 1013.1 hPa North 8 km/h 14.5 km/h 55% 0 mm 98 W/m2
18:20 25.6 °C 16.2 °C 1013.1 hPa North 4.8 km/h 12.9 km/h 56% 0 mm 85 W/m2
18:30 25.1 °C 16 °C 1013.1 hPa NNW 4.8 km/h 11.3 km/h 57% 0 mm 111 W/m2
18:40 24.9 °C 16.1 °C 1013.1 hPa NNW 4.8 km/h 12.9 km/h 58% 0 mm 123 W/m2
18:50 24.6 °C 16.1 °C 1013.4 hPa NNW 3.2 km/h 14.5 km/h 59% 0 mm 64 W/m2
19:00 24.1 °C 15.8 °C 1013.4 hPa North 4.8 km/h 11.3 km/h 60% 0 mm 46 W/m2
19:10 23.6 °C 15.4 °C 1013.4 hPa North 8 km/h 17.7 km/h 60% 0 mm 49 W/m2
19:20 23.2 °C 15.5 °C 1013.4 hPa North 4.8 km/h 17.7 km/h 62% 0 mm 39 W/m2
19:30 22.9 °C 15.5 °C 1013.8 hPa NNW 4.8 km/h 12.9 km/h 63% 0 mm 29 W/m2
19:40 22.6 °C 15.2 °C 1013.8 hPa NNW 4.8 km/h 14.5 km/h 63% 0 mm 15 W/m2
19:50 22.2 °C 15.1 °C 1013.8 hPa NNW 4.8 km/h 12.9 km/h 64% 0 mm 8 W/m2
20:00 21.8 °C 14.9 °C 1013.8 hPa NNW 3.2 km/h 11.3 km/h 65% 0 mm 0 W/m2
20:10 21.5 °C 14.7 °C 1013.8 hPa NNW 3.2 km/h 11.3 km/h 65% 0 mm 0 W/m2
20:20 21.1 °C 14.8 °C 1013.8 hPa NNW 8 km/h 14.5 km/h 67% 0 mm 0 W/m2
20:30 20.8 °C 14.5 °C 1014.1 hPa NW 4.8 km/h 11.3 km/h 67% 0 mm 0 W/m2
20:40 20.6 °C 14.5 °C 1014.1 hPa NW 1.6 km/h 9.7 km/h 68% 0 mm 0 W/m2
20:50 20.3 °C 14.4 °C 1014.4 hPa NW 3.2 km/h 6.4 km/h 69% 0 mm 0 W/m2
21:00 20.1 °C 14.2 °C 1014.4 hPa NW 1.6 km/h 6.4 km/h 69% 0 mm 0 W/m2
21:10 19.8 °C 13.9 °C 1014.4 hPa NW 1.6 km/h 4.8 km/h 69% 0 mm 0 W/m2
21:20 19.6 °C 13.9 °C 1014.8 hPa West 3.2 km/h 8 km/h 70% 0 mm 0 W/m2
21:30 19.2 °C 14.2 °C 1014.8 hPa NW 4.8 km/h 9.7 km/h 73% 0 mm 0 W/m2
21:40 18.9 °C 13.9 °C 1014.8 hPa WNW 3.2 km/h 9.7 km/h 73% 0 mm 0 W/m2
21:50 18.6 °C 13.9 °C 1015.1 hPa WNW 1.6 km/h 8 km/h 74% 0 mm 0 W/m2
22:00 18.3 °C 13.6 °C 1015.1 hPa WNW 3.2 km/h 8 km/h 74% 0 mm 0 W/m2
22:10 18.1 °C 13.6 °C 1015.5 hPa WNW 4.8 km/h 11.3 km/h 75% 0 mm 0 W/m2
22:20 17.8 °C 13.7 °C 1015.5 hPa NW 3.2 km/h 11.3 km/h 77% 0 mm 0 W/m2
22:30 17.6 °C 13.5 °C 1015.5 hPa NNW 3.2 km/h 9.7 km/h 77% 0 mm 0 W/m2
22:40 17.5 °C 13.6 °C 1015.5 hPa Calm   8 km/h 78% 0 mm 0 W/m2
23:00 17.1 °C 13.3 °C 1015.5 hPa Calm   3.2 km/h 79% 0 mm 0 W/m2
23:10 16.8 °C 13.1 °C 1015.8 hPa Calm   3.2 km/h 79% 0 mm 0 W/m2
23:20 16.6 °C 13.1 °C 1015.8 hPa Calm   3.2 km/h 80% 0 mm 0 W/m2
23:30 16.4 °C 12.9 °C 1015.8 hPa WNW 1.6 km/h 3.2 km/h 80% 0 mm 0 W/m2
23:40 16.2 °C 12.7 °C 1015.8 hPa Calm   3.2 km/h 80% 0 mm 0 W/m2
23:50 16 °C 12.7 °C 1015.8 hPa Calm   3.2 km/h 81% 0 mm 0 W/m2
Knjazevac, Serbia
Compliments of Weather Underground - 2 mb